sensor_id;sensor_type;location;lat;lon;timestamp;temperature;humidity
61004;DHT22;46889;37.310;13.582;2023-02-21T00:00:02;11.30;99.90
61004;DHT22;46889;37.310;13.582;2023-02-21T00:02:47;11.40;99.90
61004;DHT22;46889;37.310;13.582;2023-02-21T00:05:31;11.30;99.90
61004;DHT22;46889;37.310;13.582;2023-02-21T00:08:15;11.30;99.90
61004;DHT22;46889;37.310;13.582;2023-02-21T00:11:00;11.30;99.90
61004;DHT22;46889;37.310;13.582;2023-02-21T00:13:45;11.30;99.90
61004;DHT22;46889;37.310;13.582;2023-02-21T00:16:29;11.30;99.90
61004;DHT22;46889;37.310;13.582;2023-02-21T00:19:14;11.30;99.90
61004;DHT22;46889;37.310;13.582;2023-02-21T00:21:59;11.30;99.90
61004;DHT22;46889;37.310;13.582;2023-02-21T00:24:43;11.30;99.90
61004;DHT22;46889;37.310;13.582;2023-02-21T00:27:28;11.20;99.90
61004;DHT22;46889;37.310;13.582;2023-02-21T00:30:13;11.20;99.90
61004;DHT22;46889;37.310;13.582;2023-02-21T00:32:57;11.20;99.90
61004;DHT22;46889;37.310;13.582;2023-02-21T00:35:42;11.10;99.90
61004;DHT22;46889;37.310;13.582;2023-02-21T00:38:28;11.10;99.90
61004;DHT22;46889;37.310;13.582;2023-02-21T00:41:13;11.10;99.90
61004;DHT22;46889;37.310;13.582;2023-02-21T00:43:57;11.10;99.90
61004;DHT22;46889;37.310;13.582;2023-02-21T00:46:41;11.10;99.90
61004;DHT22;46889;37.310;13.582;2023-02-21T00:49:26;11.20;99.90
61004;DHT22;46889;37.310;13.582;2023-02-21T00:52:10;11.20;99.90
61004;DHT22;46889;37.310;13.582;2023-02-21T00:54:55;11.10;99.90
61004;DHT22;46889;37.310;13.582;2023-02-21T00:57:40;11.10;99.90
61004;DHT22;46889;37.310;13.582;2023-02-21T01:00:25;11.00;99.90
61004;DHT22;46889;37.310;13.582;2023-02-21T01:03:10;11.00;99.90
61004;DHT22;46889;37.310;13.582;2023-02-21T01:05:54;11.00;99.90
61004;DHT22;46889;37.310;13.582;2023-02-21T01:08:43;11.00;99.90
61004;DHT22;46889;37.310;13.582;2023-02-21T01:11:28;10.90;99.90
61004;DHT22;46889;37.310;13.582;2023-02-21T01:14:13;10.80;99.90
61004;DHT22;46889;37.310;13.582;2023-02-21T01:16:58;10.80;99.90
61004;DHT22;46889;37.310;13.582;2023-02-21T01:19:42;10.70;99.90
61004;DHT22;46889;37.310;13.582;2023-02-21T01:22:27;10.60;99.90
61004;DHT22;46889;37.310;13.582;2023-02-21T01:25:12;10.40;99.90
61004;DHT22;46889;37.310;13.582;2023-02-21T01:27:59;10.50;99.90
61004;DHT22;46889;37.310;13.582;2023-02-21T01:30:43;10.50;99.90
61004;DHT22;46889;37.310;13.582;2023-02-21T01:33:27;10.50;99.90
61004;DHT22;46889;37.310;13.582;2023-02-21T01:36:11;10.60;99.90
61004;DHT22;46889;37.310;13.582;2023-02-21T01:38:55;10.70;99.90
61004;DHT22;46889;37.310;13.582;2023-02-21T01:41:40;10.80;99.90
61004;DHT22;46889;37.310;13.582;2023-02-21T01:44:34;10.90;99.90
61004;DHT22;46889;37.310;13.582;2023-02-21T01:47:19;10.90;99.90
61004;DHT22;46889;37.310;13.582;2023-02-21T01:50:10;10.80;99.90
61004;DHT22;46889;37.310;13.582;2023-02-21T01:52:56;10.90;99.90
61004;DHT22;46889;37.310;13.582;2023-02-21T01:55:41;11.00;99.90
61004;DHT22;46889;37.310;13.582;2023-02-21T01:58:29;11.00;99.90
61004;DHT22;46889;37.310;13.582;2023-02-21T02:01:26;11.00;99.90
61004;DHT22;46889;37.310;13.582;2023-02-21T02:04:12;11.00;99.90
61004;DHT22;46889;37.310;13.582;2023-02-21T02:06:58;11.00;99.90
61004;DHT22;46889;37.310;13.582;2023-02-21T02:09:43;11.10;99.90
61004;DHT22;46889;37.310;13.582;2023-02-21T02:15:21;11.10;99.90
61004;DHT22;46889;37.310;13.582;2023-02-21T02:26:29;11.00;99.90
61004;DHT22;46889;37.310;13.582;2023-02-21T02:37:47;10.90;99.90
61004;DHT22;46889;37.310;13.582;2023-02-21T02:40:40;10.80;99.90
61004;DHT22;46889;37.310;13.582;2023-02-21T02:43:19;10.80;99.90
61004;DHT22;46889;37.310;13.582;2023-02-21T02:46:12;10.80;99.90
61004;DHT22;46889;37.310;13.582;2023-02-21T02:48:43;10.90;99.90
61004;DHT22;46889;37.310;13.582;2023-02-21T02:51:13;10.90;99.90
61004;DHT22;46889;37.310;13.582;2023-02-21T02:53:39;10.90;99.90
61004;DHT22;46889;37.310;13.582;2023-02-21T02:56:08;10.80;99.90
61004;DHT22;46889;37.310;13.582;2023-02-21T02:58:57;10.90;99.90
61004;DHT22;46889;37.310;13.582;2023-02-21T03:07:19;10.90;99.90
61004;DHT22;46889;37.310;13.582;2023-02-21T03:10:03;10.90;99.90
61004;DHT22;46889;37.310;13.582;2023-02-21T03:12:32;10.90;99.90
61004;DHT22;46889;37.310;13.582;2023-02-21T03:15:22;11.00;99.90
61004;DHT22;46889;37.310;13.582;2023-02-21T03:18:55;11.00;99.90
61004;DHT22;46889;37.310;13.582;2023-02-21T03:21:07;11.00;99.90
61004;DHT22;46889;37.310;13.582;2023-02-21T03:23:34;11.00;99.90
61004;DHT22;46889;37.310;13.582;2023-02-21T03:26:05;10.90;99.90
61004;DHT22;46889;37.310;13.582;2023-02-21T03:28:34;11.00;99.90
61004;DHT22;46889;37.310;13.582;2023-02-21T03:31:03;11.00;99.90
61004;DHT22;46889;37.310;13.582;2023-02-21T03:33:30;11.00;99.90
61004;DHT22;46889;37.310;13.582;2023-02-21T03:36:02;11.00;99.90
61004;DHT22;46889;37.310;13.582;2023-02-21T03:38:30;11.00;99.90
61004;DHT22;46889;37.310;13.582;2023-02-21T03:40:56;11.00;99.90
61004;DHT22;46889;37.310;13.582;2023-02-21T03:43:22;10.90;99.90
61004;DHT22;46889;37.310;13.582;2023-02-21T03:45:48;10.90;99.90
61004;DHT22;46889;37.310;13.582;2023-02-21T03:48:14;10.90;99.90
61004;DHT22;46889;37.310;13.582;2023-02-21T03:50:41;10.90;99.90
61004;DHT22;46889;37.310;13.582;2023-02-21T03:53:09;10.90;99.90
61004;DHT22;46889;37.310;13.582;2023-02-21T03:55:35;10.90;99.90
61004;DHT22;46889;37.310;13.582;2023-02-21T03:58:01;10.90;99.90
61004;DHT22;46889;37.310;13.582;2023-02-21T04:00:27;10.90;99.90
61004;DHT22;46889;37.310;13.582;2023-02-21T04:02:53;10.90;99.90
61004;DHT22;46889;37.310;13.582;2023-02-21T04:05:19;10.90;99.90
61004;DHT22;46889;37.310;13.582;2023-02-21T04:07:45;10.70;99.90
61004;DHT22;46889;37.310;13.582;2023-02-21T04:10:12;10.70;99.90
61004;DHT22;46889;37.310;13.582;2023-02-21T04:12:38;10.70;99.90
61004;DHT22;46889;37.310;13.582;2023-02-21T04:15:05;10.70;99.90
61004;DHT22;46889;37.310;13.582;2023-02-21T04:17:31;10.70;99.90
61004;DHT22;46889;37.310;13.582;2023-02-21T04:19:57;10.80;99.90
61004;DHT22;46889;37.310;13.582;2023-02-21T04:22:23;10.70;99.90
61004;DHT22;46889;37.310;13.582;2023-02-21T04:24:49;10.70;99.90
61004;DHT22;46889;37.310;13.582;2023-02-21T04:27:16;10.70;99.90
61004;DHT22;46889;37.310;13.582;2023-02-21T04:29:42;10.70;99.90
61004;DHT22;46889;37.310;13.582;2023-02-21T04:32:09;10.70;99.90
61004;DHT22;46889;37.310;13.582;2023-02-21T04:34:35;10.60;99.90
61004;DHT22;46889;37.310;13.582;2023-02-21T04:37:01;10.60;99.90
61004;DHT22;46889;37.310;13.582;2023-02-21T04:39:27;10.60;99.90
61004;DHT22;46889;37.310;13.582;2023-02-21T04:41:53;10.60;99.90
61004;DHT22;46889;37.310;13.582;2023-02-21T04:44:19;10.60;99.90
61004;DHT22;46889;37.310;13.582;2023-02-21T04:46:45;10.60;99.90
61004;DHT22;46889;37.310;13.582;2023-02-21T04:49:12;10.60;99.90
61004;DHT22;46889;37.310;13.582;2023-02-21T04:51:38;10.60;99.90
61004;DHT22;46889;37.310;13.582;2023-02-21T04:54:05;10.50;99.90
61004;DHT22;46889;37.310;13.582;2023-02-21T04:56:32;10.50;99.90
61004;DHT22;46889;37.310;13.582;2023-02-21T04:58:58;10.50;99.90
61004;DHT22;46889;37.310;13.582;2023-02-21T05:01:28;10.40;99.90
61004;DHT22;46889;37.310;13.582;2023-02-21T05:03:56;10.40;99.90
61004;DHT22;46889;37.310;13.582;2023-02-21T05:06:24;10.40;99.90
61004;DHT22;46889;37.310;13.582;2023-02-21T05:08:51;10.40;99.90
61004;DHT22;46889;37.310;13.582;2023-02-21T05:11:18;10.40;99.90
61004;DHT22;46889;37.310;13.582;2023-02-21T05:13:45;10.40;99.90
61004;DHT22;46889;37.310;13.582;2023-02-21T05:16:11;10.30;99.90
61004;DHT22;46889;37.310;13.582;2023-02-21T05:18:40;10.40;99.90
61004;DHT22;46889;37.310;13.582;2023-02-21T05:21:10;10.30;99.90
61004;DHT22;46889;37.310;13.582;2023-02-21T05:23:38;10.30;99.90
61004;DHT22;46889;37.310;13.582;2023-02-21T05:26:10;10.30;99.90
61004;DHT22;46889;37.310;13.582;2023-02-21T05:28:38;10.30;99.90
61004;DHT22;46889;37.310;13.582;2023-02-21T05:31:05;10.30;99.90
61004;DHT22;46889;37.310;13.582;2023-02-21T05:33:31;10.40;99.90
61004;DHT22;46889;37.310;13.582;2023-02-21T05:35:58;10.40;99.90
61004;DHT22;46889;37.310;13.582;2023-02-21T05:38:25;10.40;99.90
61004;DHT22;46889;37.310;13.582;2023-02-21T05:40:52;10.40;99.90
61004;DHT22;46889;37.310;13.582;2023-02-21T05:43:18;10.40;99.90
61004;DHT22;46889;37.310;13.582;2023-02-21T05:45:44;10.40;99.90
61004;DHT22;46889;37.310;13.582;2023-02-21T05:48:10;10.30;99.90
61004;DHT22;46889;37.310;13.582;2023-02-21T05:50:36;10.40;99.90
61004;DHT22;46889;37.310;13.582;2023-02-21T05:53:04;10.40;99.90
61004;DHT22;46889;37.310;13.582;2023-02-21T05:55:32;10.40;99.90
61004;DHT22;46889;37.310;13.582;2023-02-21T05:57:58;10.50;99.90
61004;DHT22;46889;37.310;13.582;2023-02-21T06:00:27;10.50;99.90
61004;DHT22;46889;37.310;13.582;2023-02-21T06:02:54;10.50;99.90
61004;DHT22;46889;37.310;13.582;2023-02-21T06:05:22;10.40;99.90
61004;DHT22;46889;37.310;13.582;2023-02-21T06:07:48;10.40;99.90
61004;DHT22;46889;37.310;13.582;2023-02-21T06:10:16;10.40;99.90
61004;DHT22;46889;37.310;13.582;2023-02-21T06:12:42;10.40;99.90
61004;DHT22;46889;37.310;13.582;2023-02-21T06:15:09;10.40;99.90
61004;DHT22;46889;37.310;13.582;2023-02-21T06:17:38;10.50;99.90
61004;DHT22;46889;37.310;13.582;2023-02-21T06:20:06;11.00;99.90
61004;DHT22;46889;37.310;13.582;2023-02-21T06:22:32;11.70;99.90
61004;DHT22;46889;37.310;13.582;2023-02-21T06:24:58;12.50;99.90
61004;DHT22;46889;37.310;13.582;2023-02-21T06:27:24;13.30;99.90
61004;DHT22;46889;37.310;13.582;2023-02-21T06:29:50;14.10;99.90
61004;DHT22;46889;37.310;13.582;2023-02-21T06:32:17;14.70;99.90
61004;DHT22;46889;37.310;13.582;2023-02-21T06:34:43;14.90;99.90
61004;DHT22;46889;37.310;13.582;2023-02-21T06:37:10;15.30;99.90
61004;DHT22;46889;37.310;13.582;2023-02-21T06:39:41;15.40;99.90
61004;DHT22;46889;37.310;13.582;2023-02-21T06:42:10;15.30;99.90
61004;DHT22;46889;37.310;13.582;2023-02-21T06:44:37;14.50;99.90
61004;DHT22;46889;37.310;13.582;2023-02-21T06:47:03;14.60;99.90
61004;DHT22;46889;37.310;13.582;2023-02-21T06:49:29;14.60;99.90
61004;DHT22;46889;37.310;13.582;2023-02-21T06:51:55;14.00;99.90
61004;DHT22;46889;37.310;13.582;2023-02-21T06:54:21;13.90;99.90
61004;DHT22;46889;37.310;13.582;2023-02-21T06:56:47;13.30;99.90
61004;DHT22;46889;37.310;13.582;2023-02-21T06:59:13;12.90;99.90
61004;DHT22;46889;37.310;13.582;2023-02-21T07:01:39;12.40;99.90
61004;DHT22;46889;37.310;13.582;2023-02-21T07:04:05;11.90;99.90
61004;DHT22;46889;37.310;13.582;2023-02-21T07:06:31;12.00;99.90
61004;DHT22;46889;37.310;13.582;2023-02-21T07:08:58;12.10;99.90
61004;DHT22;46889;37.310;13.582;2023-02-21T07:11:24;12.20;99.90
61004;DHT22;46889;37.310;13.582;2023-02-21T07:13:51;12.10;99.90
61004;DHT22;46889;37.310;13.582;2023-02-21T07:16:18;12.20;99.90
61004;DHT22;46889;37.310;13.582;2023-02-21T07:18:45;12.00;99.90
61004;DHT22;46889;37.310;13.582;2023-02-21T07:21:12;12.00;99.90
61004;DHT22;46889;37.310;13.582;2023-02-21T07:23:38;11.90;99.90
61004;DHT22;46889;37.310;13.582;2023-02-21T07:26:05;11.90;99.90
61004;DHT22;46889;37.310;13.582;2023-02-21T07:28:31;11.90;99.90
61004;DHT22;46889;37.310;13.582;2023-02-21T07:30:57;12.10;99.90
61004;DHT22;46889;37.310;13.582;2023-02-21T07:33:24;12.00;99.90
61004;DHT22;46889;37.310;13.582;2023-02-21T07:35:50;12.00;99.90
61004;DHT22;46889;37.310;13.582;2023-02-21T07:38:25;12.00;99.90
61004;DHT22;46889;37.310;13.582;2023-02-21T07:41:01;12.10;99.90
61004;DHT22;46889;37.310;13.582;2023-02-21T07:43:29;12.10;99.90
61004;DHT22;46889;37.310;13.582;2023-02-21T07:45:55;12.20;99.90
61004;DHT22;46889;37.310;13.582;2023-02-21T07:48:22;12.60;99.90
61004;DHT22;46889;37.310;13.582;2023-02-21T07:50:48;12.90;99.90
61004;DHT22;46889;37.310;13.582;2023-02-21T07:53:15;13.10;99.90
61004;DHT22;46889;37.310;13.582;2023-02-21T07:55:41;13.30;99.90
61004;DHT22;46889;37.310;13.582;2023-02-21T07:58:08;13.50;99.90
61004;DHT22;46889;37.310;13.582;2023-02-21T08:00:35;13.70;99.90
61004;DHT22;46889;37.310;13.582;2023-02-21T08:03:01;14.20;99.90
61004;DHT22;46889;37.310;13.582;2023-02-21T08:05:28;14.10;99.90
61004;DHT22;46889;37.310;13.582;2023-02-21T08:07:54;14.00;99.90
61004;DHT22;46889;37.310;13.582;2023-02-21T08:10:23;14.00;99.90
61004;DHT22;46889;37.310;13.582;2023-02-21T08:12:49;13.80;99.90
61004;DHT22;46889;37.310;13.582;2023-02-21T08:15:18;13.90;99.90
61004;DHT22;46889;37.310;13.582;2023-02-21T08:17:47;14.20;99.90
61004;DHT22;46889;37.310;13.582;2023-02-21T08:20:14;13.80;99.90
61004;DHT22;46889;37.310;13.582;2023-02-21T08:22:42;13.50;99.90
61004;DHT22;46889;37.310;13.582;2023-02-21T08:25:10;13.30;99.90
61004;DHT22;46889;37.310;13.582;2023-02-21T08:27:38;13.50;99.90
61004;DHT22;46889;37.310;13.582;2023-02-21T08:30:06;13.70;99.90
61004;DHT22;46889;37.310;13.582;2023-02-21T08:32:33;13.90;99.90
61004;DHT22;46889;37.310;13.582;2023-02-21T08:35:00;13.80;99.90
61004;DHT22;46889;37.310;13.582;2023-02-21T08:37:28;13.90;99.90
61004;DHT22;46889;37.310;13.582;2023-02-21T08:39:58;14.20;99.90
61004;DHT22;46889;37.310;13.582;2023-02-21T08:42:25;14.30;99.90
61004;DHT22;46889;37.310;13.582;2023-02-21T08:44:51;14.30;99.90
61004;DHT22;46889;37.310;13.582;2023-02-21T08:47:17;14.20;99.90
61004;DHT22;46889;37.310;13.582;2023-02-21T08:49:44;14.60;99.90
61004;DHT22;46889;37.310;13.582;2023-02-21T08:52:15;14.60;99.90
61004;DHT22;46889;37.310;13.582;2023-02-21T08:54:41;14.80;99.90
61004;DHT22;46889;37.310;13.582;2023-02-21T08:57:08;15.20;99.90
61004;DHT22;46889;37.310;13.582;2023-02-21T08:59:34;14.80;99.90
61004;DHT22;46889;37.310;13.582;2023-02-21T09:02:02;15.20;99.90
61004;DHT22;46889;37.310;13.582;2023-02-21T09:04:28;15.70;99.90
61004;DHT22;46889;37.310;13.582;2023-02-21T09:06:55;15.90;99.90
61004;DHT22;46889;37.310;13.582;2023-02-21T09:09:21;15.70;99.90
61004;DHT22;46889;37.310;13.582;2023-02-21T09:11:48;15.90;99.90
61004;DHT22;46889;37.310;13.582;2023-02-21T09:14:15;15.10;99.90
61004;DHT22;46889;37.310;13.582;2023-02-21T09:16:41;15.00;99.90
61004;DHT22;46889;37.310;13.582;2023-02-21T09:19:07;15.60;99.90
61004;DHT22;46889;37.310;13.582;2023-02-21T09:21:34;16.10;99.90
61004;DHT22;46889;37.310;13.582;2023-02-21T09:24:01;16.50;99.90
61004;DHT22;46889;37.310;13.582;2023-02-21T09:26:28;16.60;99.90
61004;DHT22;46889;37.310;13.582;2023-02-21T09:28:57;16.70;99.90
61004;DHT22;46889;37.310;13.582;2023-02-21T09:31:23;17.00;99.90
61004;DHT22;46889;37.310;13.582;2023-02-21T09:33:49;16.90;99.90
61004;DHT22;46889;37.310;13.582;2023-02-21T09:36:16;16.80;99.90
61004;DHT22;46889;37.310;13.582;2023-02-21T09:38:49;16.70;99.90
61004;DHT22;46889;37.310;13.582;2023-02-21T09:41:15;16.80;99.90
61004;DHT22;46889;37.310;13.582;2023-02-21T09:43:45;17.20;99.90
61004;DHT22;46889;37.310;13.582;2023-02-21T09:46:17;17.50;99.90
61004;DHT22;46889;37.310;13.582;2023-02-21T09:48:44;17.70;99.90
61004;DHT22;46889;37.310;13.582;2023-02-21T09:51:12;17.90;99.90
61004;DHT22;46889;37.310;13.582;2023-02-21T09:53:42;17.50;99.90
61004;DHT22;46889;37.310;13.582;2023-02-21T09:56:30;17.30;99.90
61004;DHT22;46889;37.310;13.582;2023-02-21T09:58:59;17.30;99.90
61004;DHT22;46889;37.310;13.582;2023-02-21T10:10:13;17.20;99.90
61004;DHT22;46889;37.310;13.582;2023-02-21T10:13:06;17.10;99.90
61004;DHT22;46889;37.310;13.582;2023-02-21T10:18:25;16.70;99.90
61004;DHT22;46889;37.310;13.582;2023-02-21T10:20:58;16.70;99.90
61004;DHT22;46889;37.310;13.582;2023-02-21T10:23:46;16.70;99.90
61004;DHT22;46889;37.310;13.582;2023-02-21T10:26:21;16.40;99.90
61004;DHT22;46889;37.310;13.582;2023-02-21T10:28:49;16.70;99.90
61004;DHT22;46889;37.310;13.582;2023-02-21T10:31:29;17.00;99.90
61004;DHT22;46889;37.310;13.582;2023-02-21T10:33:56;17.50;99.90
61004;DHT22;46889;37.310;13.582;2023-02-21T10:36:25;17.50;99.90
61004;DHT22;46889;37.310;13.582;2023-02-21T10:39:04;17.60;99.90
61004;DHT22;46889;37.310;13.582;2023-02-21T10:41:35;17.60;99.90
61004;DHT22;46889;37.310;13.582;2023-02-21T10:46:54;18.20;99.90
61004;DHT22;46889;37.310;13.582;2023-02-21T10:52:16;17.80;99.90
61004;DHT22;46889;37.310;13.582;2023-02-21T10:55:02;17.90;99.90
61004;DHT22;46889;37.310;13.582;2023-02-21T10:57:33;18.20;99.90
61004;DHT22;46889;37.310;13.582;2023-02-21T10:59:59;18.30;99.90
61004;DHT22;46889;37.310;13.582;2023-02-21T11:02:39;18.50;99.90
61004;DHT22;46889;37.310;13.582;2023-02-21T11:05:18;18.50;99.90
61004;DHT22;46889;37.310;13.582;2023-02-21T11:08:04;18.50;99.90
61004;DHT22;46889;37.310;13.582;2023-02-21T11:13:12;18.00;99.90
61004;DHT22;46889;37.310;13.582;2023-02-21T11:15:39;18.40;99.90
61004;DHT22;46889;37.310;13.582;2023-02-21T11:18:23;18.20;99.90
61004;DHT22;46889;37.310;13.582;2023-02-21T11:20:52;18.50;99.90
61004;DHT22;46889;37.310;13.582;2023-02-21T11:23:26;18.40;99.90
61004;DHT22;46889;37.310;13.582;2023-02-21T11:26:04;18.60;99.90
61004;DHT22;46889;37.310;13.582;2023-02-21T11:28:36;18.50;99.90
61004;DHT22;46889;37.310;13.582;2023-02-21T11:31:10;18.10;99.90
61004;DHT22;46889;37.310;13.582;2023-02-21T11:33:40;18.20;99.90
61004;DHT22;46889;37.310;13.582;2023-02-21T11:36:13;18.20;99.90
61004;DHT22;46889;37.310;13.582;2023-02-21T11:38:41;18.40;99.90
61004;DHT22;46889;37.310;13.582;2023-02-21T11:41:47;18.40;99.90
61004;DHT22;46889;37.310;13.582;2023-02-21T11:44:31;18.40;99.90
61004;DHT22;46889;37.310;13.582;2023-02-21T11:47:16;18.30;99.90
61004;DHT22;46889;37.310;13.582;2023-02-21T11:50:07;18.50;99.90
61004;DHT22;46889;37.310;13.582;2023-02-21T11:53:22;18.30;99.90
61004;DHT22;46889;37.310;13.582;2023-02-21T11:55:29;18.30;99.90
61004;DHT22;46889;37.310;13.582;2023-02-21T12:00:39;18.50;99.90
61004;DHT22;46889;37.310;13.582;2023-02-21T12:06:37;18.30;99.90
61004;DHT22;46889;37.310;13.582;2023-02-21T12:09:07;18.20;99.90
61004;DHT22;46889;37.310;13.582;2023-02-21T12:12:12;18.30;99.90
61004;DHT22;46889;37.310;13.582;2023-02-21T12:15:19;18.30;99.90
61004;DHT22;46889;37.310;13.582;2023-02-21T12:18:25;18.10;99.90
61004;DHT22;46889;37.310;13.582;2023-02-21T12:21:20;18.20;99.90
61004;DHT22;46889;37.310;13.582;2023-02-21T12:24:03;18.10;99.90
61004;DHT22;46889;37.310;13.582;2023-02-21T12:26:57;18.10;99.90
61004;DHT22;46889;37.310;13.582;2023-02-21T12:29:36;18.00;99.90
61004;DHT22;46889;37.310;13.582;2023-02-21T12:35:02;18.20;99.90
61004;DHT22;46889;37.310;13.582;2023-02-21T12:40:56;18.10;99.90
61004;DHT22;46889;37.310;13.582;2023-02-21T12:46:36;18.20;99.90
61004;DHT22;46889;37.310;13.582;2023-02-21T12:49:38;17.80;99.90
61004;DHT22;46889;37.310;13.582;2023-02-21T12:57:47;18.00;99.90
61004;DHT22;46889;37.310;13.582;2023-02-21T13:00:26;18.30;99.90
61004;DHT22;46889;37.310;13.582;2023-02-21T13:03:47;17.90;99.90
61004;DHT22;46889;37.310;13.582;2023-02-21T13:06:03;17.80;99.90
61004;DHT22;46889;37.310;13.582;2023-02-21T13:11:34;17.70;99.90
61004;DHT22;46889;37.310;13.582;2023-02-21T13:14:05;17.70;99.90
61004;DHT22;46889;37.310;13.582;2023-02-21T13:16:32;18.00;99.90
61004;DHT22;46889;37.310;13.582;2023-02-21T13:19:06;18.10;99.90
61004;DHT22;46889;37.310;13.582;2023-02-21T13:24:54;17.90;99.90
61004;DHT22;46889;37.310;13.582;2023-02-21T13:33:00;17.90;99.90
61004;DHT22;46889;37.310;13.582;2023-02-21T13:35:37;17.70;99.90
61004;DHT22;46889;37.310;13.582;2023-02-21T13:38:04;17.80;99.90
61004;DHT22;46889;37.310;13.582;2023-02-21T13:40:45;17.80;99.90
61004;DHT22;46889;37.310;13.582;2023-02-21T13:43:22;17.80;99.90
61004;DHT22;46889;37.310;13.582;2023-02-21T13:45:49;18.10;99.90
61004;DHT22;46889;37.310;13.582;2023-02-21T13:48:26;18.00;99.90
61004;DHT22;46889;37.310;13.582;2023-02-21T13:50:57;18.20;99.90
61004;DHT22;46889;37.310;13.582;2023-02-21T13:53:32;18.20;99.90
61004;DHT22;46889;37.310;13.582;2023-02-21T13:58:39;17.70;99.90
61004;DHT22;46889;37.310;13.582;2023-02-21T14:03:47;17.40;99.90
61004;DHT22;46889;37.310;13.582;2023-02-21T14:06:21;17.40;99.90
61004;DHT22;46889;37.310;13.582;2023-02-21T14:08:49;17.40;99.90
61004;DHT22;46889;37.310;13.582;2023-02-21T14:11:25;17.40;99.90
61004;DHT22;46889;37.310;13.582;2023-02-21T14:14:02;17.30;99.90
61004;DHT22;46889;37.310;13.582;2023-02-21T14:16:49;17.20;99.90
61004;DHT22;46889;37.310;13.582;2023-02-21T14:19:29;17.00;99.90
61004;DHT22;46889;37.310;13.582;2023-02-21T14:22:01;17.20;99.90
61004;DHT22;46889;37.310;13.582;2023-02-21T14:24:31;17.10;99.90
61004;DHT22;46889;37.310;13.582;2023-02-21T14:32:41;17.40;99.90
61004;DHT22;46889;37.310;13.582;2023-02-21T14:35:31;17.30;99.90
61004;DHT22;46889;37.310;13.582;2023-02-21T14:38:03;17.00;99.90
61004;DHT22;46889;37.310;13.582;2023-02-21T14:44:15;16.50;99.90
61004;DHT22;46889;37.310;13.582;2023-02-21T15:09:37;16.90;99.90
61004;DHT22;46889;37.310;13.582;2023-02-21T15:12:13;16.90;99.90
61004;DHT22;46889;37.310;13.582;2023-02-21T15:14:49;16.80;99.90
61004;DHT22;46889;37.310;13.582;2023-02-21T15:17:20;16.70;99.90
61004;DHT22;46889;37.310;13.582;2023-02-21T15:20:12;16.90;99.90
61004;DHT22;46889;37.310;13.582;2023-02-21T15:22:38;16.80;99.90
61004;DHT22;46889;37.310;13.582;2023-02-21T15:27:34;16.80;99.90
61004;DHT22;46889;37.310;13.582;2023-02-21T15:30:28;16.70;99.90
61004;DHT22;46889;37.310;13.582;2023-02-21T15:35:41;17.00;99.90
61004;DHT22;46889;37.310;13.582;2023-02-21T15:38:16;17.10;99.90
61004;DHT22;46889;37.310;13.582;2023-02-21T15:40:44;17.00;99.90
61004;DHT22;46889;37.310;13.582;2023-02-21T15:43:52;16.80;99.90
61004;DHT22;46889;37.310;13.582;2023-02-21T15:46:26;16.60;99.90
61004;DHT22;46889;37.310;13.582;2023-02-21T15:48:56;16.70;99.90
61004;DHT22;46889;37.310;13.582;2023-02-21T15:51:25;16.70;99.90
61004;DHT22;46889;37.310;13.582;2023-02-21T15:54:21;16.60;99.90
61004;DHT22;46889;37.310;13.582;2023-02-21T15:59:37;16.40;99.90
61004;DHT22;46889;37.310;13.582;2023-02-21T16:02:21;16.40;99.90
61004;DHT22;46889;37.310;13.582;2023-02-21T16:04:49;16.40;99.90
61004;DHT22;46889;37.310;13.582;2023-02-21T16:07:32;16.40;99.90
61004;DHT22;46889;37.310;13.582;2023-02-21T16:10:05;16.30;99.90
61004;DHT22;46889;37.310;13.582;2023-02-21T16:12:59;16.20;99.90
61004;DHT22;46889;37.310;13.582;2023-02-21T16:15:37;16.20;99.90
61004;DHT22;46889;37.310;13.582;2023-02-21T16:18:15;16.10;99.90
61004;DHT22;46889;37.310;13.582;2023-02-21T16:20:44;16.10;99.90
61004;DHT22;46889;37.310;13.582;2023-02-21T16:24:30;15.90;99.90
61004;DHT22;46889;37.310;13.582;2023-02-21T16:27:11;15.90;99.90
61004;DHT22;46889;37.310;13.582;2023-02-21T16:29:37;15.80;99.90
61004;DHT22;46889;37.310;13.582;2023-02-21T16:32:04;15.60;99.90
61004;DHT22;46889;37.310;13.582;2023-02-21T16:34:32;15.50;99.90
61004;DHT22;46889;37.310;13.582;2023-02-21T16:37:05;15.30;99.90
61004;DHT22;46889;37.310;13.582;2023-02-21T16:39:35;15.30;99.90
61004;DHT22;46889;37.310;13.582;2023-02-21T16:42:02;15.20;99.90
61004;DHT22;46889;37.310;13.582;2023-02-21T16:44:28;15.10;99.90
61004;DHT22;46889;37.310;13.582;2023-02-21T16:46:54;14.80;99.90
61004;DHT22;46889;37.310;13.582;2023-02-21T16:49:20;14.60;99.90
61004;DHT22;46889;37.310;13.582;2023-02-21T16:51:49;14.60;99.90
61004;DHT22;46889;37.310;13.582;2023-02-21T16:54:16;14.50;99.90
61004;DHT22;46889;37.310;13.582;2023-02-21T16:56:44;14.30;99.90
61004;DHT22;46889;37.310;13.582;2023-02-21T16:59:16;14.20;99.90
61004;DHT22;46889;37.310;13.582;2023-02-21T17:01:43;14.20;99.90
61004;DHT22;46889;37.310;13.582;2023-02-21T17:04:15;14.10;99.90
61004;DHT22;46889;37.310;13.582;2023-02-21T17:06:43;14.00;99.90
61004;DHT22;46889;37.310;13.582;2023-02-21T17:09:31;14.10;99.90
61004;DHT22;46889;37.310;13.582;2023-02-21T17:12:05;14.00;99.90
61004;DHT22;46889;37.310;13.582;2023-02-21T17:14:31;14.00;99.90
61004;DHT22;46889;37.310;13.582;2023-02-21T17:16:58;13.90;99.90
61004;DHT22;46889;37.310;13.582;2023-02-21T17:19:24;13.80;99.90
61004;DHT22;46889;37.310;13.582;2023-02-21T17:21:50;13.80;99.90
61004;DHT22;46889;37.310;13.582;2023-02-21T17:24:17;13.70;99.90
61004;DHT22;46889;37.310;13.582;2023-02-21T17:26:43;13.70;99.90
61004;DHT22;46889;37.310;13.582;2023-02-21T17:29:10;13.60;99.90
61004;DHT22;46889;37.310;13.582;2023-02-21T17:31:36;13.60;99.90
61004;DHT22;46889;37.310;13.582;2023-02-21T17:34:03;13.50;99.90
61004;DHT22;46889;37.310;13.582;2023-02-21T17:36:29;13.50;99.90
61004;DHT22;46889;37.310;13.582;2023-02-21T17:38:56;13.40;99.90
61004;DHT22;46889;37.310;13.582;2023-02-21T17:41:22;13.40;99.90
61004;DHT22;46889;37.310;13.582;2023-02-21T17:43:48;13.40;99.90
61004;DHT22;46889;37.310;13.582;2023-02-21T17:46:20;13.40;99.90
61004;DHT22;46889;37.310;13.582;2023-02-21T17:48:49;13.50;99.90
61004;DHT22;46889;37.310;13.582;2023-02-21T17:51:21;13.30;99.90
61004;DHT22;46889;37.310;13.582;2023-02-21T17:53:48;13.30;99.90
61004;DHT22;46889;37.310;13.582;2023-02-21T17:56:20;13.30;99.90